Time;durP1;ratioP1;P1;durP2;ratioP2;P2;SDS_P1;SDS_P2;PMS_P1;PMS_P2;Temp;Humidity;BMP_temperature;BMP_pressure;BME280_temperature;BME280_humidity;BME280_pressure;Samples;Min_cycle;Max_cycle;Signal;HPM_P1;HPM_P2
2023/01/26 00:01:52;;;;;;;68.07;28.83;;;;;;;;;;5081608;28;20462;-71
2023/01/26 00:04:18;;;;;;;79.03;30.35;;;;;;;;;;5083470;28;20413;-71
2023/01/26 00:06:45;;;;;;;77.53;29.88;;;;;;;;;;5084502;28;20397;-71
2023/01/26 00:09:14;;;;;;;75.90;28.83;;;;;;;;;;5087149;28;20050;-71
2023/01/26 00:11:40;;;;;;;80.65;30.40;;;;;;;;;;5085092;28;20084;-71
2023/01/26 00:14:06;;;;;;;81.40;30.60;;;;;;;;;;5082607;28;20097;-71
2023/01/26 00:16:32;;;;;;;81.32;30.60;;;;;;;;;;5080821;28;20105;-71
2023/01/26 00:18:58;;;;;;;76.40;28.02;;;;;;;;;;5082252;28;20032;-71
2023/01/26 00:21:24;;;;;;;80.10;29.77;;;;;;;;;;5081402;28;20051;-71
2023/01/26 00:23:51;;;;;;;82.78;31.95;;;;;;;;;;5088154;28;20048;-71
2023/01/26 00:26:19;;;;;;;76.28;30.50;;;;;;;;;;5064464;28;20114;-71
2023/01/26 00:28:45;;;;;;;71.35;28.92;;;;;;;;;;5080865;28;22105;-71
2023/01/26 00:31:13;;;;;;;76.78;29.80;;;;;;;;;;5082006;28;20048;-71
2023/01/26 00:33:39;;;;;;;70.32;28.25;;;;;;;;;;5073997;28;20044;-71
2023/01/26 00:36:05;;;;;;;70.53;28.38;;;;;;;;;;5078126;28;20578;-71
2023/01/26 00:38:31;;;;;;;69.15;26.80;;;;;;;;;;5072980;28;20040;-71
2023/01/26 00:40:57;;;;;;;85.55;30.55;;;;;;;;;;5081393;28;20127;-71
2023/01/26 00:43:23;;;;;;;70.97;28.15;;;;;;;;;;5093125;28;20066;-71
2023/01/26 00:45:49;;;;;;;76.07;29.15;;;;;;;;;;5087744;28;20071;-71
2023/01/26 00:48:16;;;;;;;72.63;28.98;;;;;;;;;;5081405;28;20040;-71
2023/01/26 00:50:42;;;;;;;87.88;31.48;;;;;;;;;;5082034;28;20052;-71
2023/01/26 00:53:08;;;;;;;73.70;27.23;;;;;;;;;;5081173;28;20431;-72
2023/01/26 00:55:34;;;;;;;77.35;27.92;;;;;;;;;;5083713;28;20044;-71
2023/01/26 00:58:01;;;;;;;77.32;29.23;;;;;;;;;;5081425;28;20056;-71
2023/01/26 01:00:27;;;;;;;76.00;28.50;;;;;;;;;;5078896;28;20044;-71
2023/01/26 01:02:55;;;;;;;82.82;30.77;;;;;;;;;;5078047;28;20052;-71
2023/01/26 01:05:21;;;;;;;78.68;28.55;;;;;;;;;;5081838;28;20047;-71
2023/01/26 01:07:47;;;;;;;80.93;29.60;;;;;;;;;;5086273;28;20040;-71
2023/01/26 01:10:13;;;;;;;77.22;29.52;;;;;;;;;;5080194;28;20494;-71
2023/01/26 01:12:39;;;;;;;89.15;31.05;;;;;;;;;;5084283;28;20389;-71
2023/01/26 01:15:06;;;;;;;82.55;30.42;;;;;;;;;;5081095;28;20040;-71
2023/01/26 01:17:32;;;;;;;75.45;27.98;;;;;;;;;;5081106;28;20437;-71
2023/01/26 01:19:58;;;;;;;74.38;27.58;;;;;;;;;;5079212;28;20170;-71
2023/01/26 01:22:24;;;;;;;89.95;30.00;;;;;;;;;;5082158;28;20044;-71
2023/01/26 01:24:51;;;;;;;82.35;29.88;;;;;;;;;;5092513;28;20055;-71
2023/01/26 01:27:17;;;;;;;70.57;27.20;;;;;;;;;;5083372;28;20048;-71
2023/01/26 01:29:43;;;;;;;82.53;28.92;;;;;;;;;;5083815;28;20043;-71
2023/01/26 01:32:09;;;;;;;83.72;27.90;;;;;;;;;;5077287;28;20498;-71
2023/01/26 01:34:35;;;;;;;68.13;26.60;;;;;;;;;;5089633;28;20455;-71
2023/01/26 01:37:01;;;;;;;79.25;26.77;;;;;;;;;;5060029;28;20368;-71
2023/01/26 01:39:27;;;;;;;66.80;26.63;;;;;;;;;;5076006;28;20054;-71
2023/01/26 01:41:53;;;;;;;78.00;26.75;;;;;;;;;;5096298;28;20089;-71
2023/01/26 01:44:21;;;;;;;76.15;26.45;;;;;;;;;;5083529;28;20044;-71
2023/01/26 01:46:51;;;;;;;75.47;26.50;;;;;;;;;;5076028;28;20513;-71
2023/01/26 01:49:19;;;;;;;74.13;26.20;;;;;;;;;;5076837;28;20049;-71
2023/01/26 01:51:55;;;;;;;71.45;26.48;;;;;;;;;;5095852;28;20040;-71
2023/01/26 01:54:24;;;;;;;69.53;25.85;;;;;;;;;;5095990;28;20040;-71
2023/01/26 01:56:55;;;;;;;72.32;25.55;;;;;;;;;;5095434;28;20048;-71
2023/01/26 01:59:21;;;;;;;61.47;23.45;;;;;;;;;;5095651;28;20040;-71
2023/01/26 02:01:50;;;;;;;66.25;25.75;;;;;;;;;;5079213;28;20123;-71
2023/01/26 02:04:16;;;;;;;72.78;25.17;;;;;;;;;;5087233;28;20518;-71
2023/01/26 02:06:46;;;;;;;67.50;24.85;;;;;;;;;;5084749;28;20461;-71
2023/01/26 02:10:17;;;;;;;67.00;25.08;;;;;;;;;;5082272;28;20036;-71
2023/01/26 02:11:59;;;;;;;66.88;24.02;;;;;;;;;;5082593;28;20036;-71
2023/01/26 02:14:26;;;;;;;59.67;23.80;;;;;;;;;;5080425;28;20062;-71
2023/01/26 02:16:52;;;;;;;73.93;25.23;;;;;;;;;;5081799;28;20490;-71
2023/01/26 02:19:26;;;;;;;69.65;24.45;;;;;;;;;;5085332;28;20513;-71
2023/01/26 02:21:55;;;;;;;59.97;22.50;;;;;;;;;;5083974;28;20036;-71
2023/01/26 02:24:23;;;;;;;66.40;24.20;;;;;;;;;;5085915;28;20048;-70
2023/01/26 02:26:49;;;;;;;74.43;24.05;;;;;;;;;;5084208;28;20047;-70
2023/01/26 02:29:15;;;;;;;69.68;22.85;;;;;;;;;;5083510;28;20036;-71
2023/01/26 02:31:42;;;;;;;57.80;21.83;;;;;;;;;;5086400;28;20044;-71
2023/01/26 02:34:08;;;;;;;63.33;23.10;;;;;;;;;;5084527;28;20164;-71
2023/01/26 02:36:34;;;;;;;65.03;22.35;;;;;;;;;;5088025;28;20548;-71
2023/01/26 02:39:19;;;;;;;55.38;20.67;;;;;;;;;;5081457;28;20479;-71
2023/01/26 02:44:31;;;;;;;54.30;20.30;;;;;;;;;;5085348;28;20048;-71
2023/01/26 02:46:57;;;;;;;51.53;20.33;;;;;;;;;;5064718;28;20050;-71
2023/01/26 02:52:08;;;;;;;53.15;19.30;;;;;;;;;;5083469;28;20048;-71
2023/01/26 02:57:19;;;;;;;56.95;20.33;;;;;;;;;;5091017;28;20040;-71
2023/01/26 02:59:45;;;;;;;47.70;18.88;;;;;;;;;;5065387;28;20056;-71
2023/01/26 03:02:11;;;;;;;52.58;18.77;;;;;;;;;;5084017;28;20067;-72
2023/01/26 03:04:37;;;;;;;60.55;21.13;;;;;;;;;;5081126;28;20040;-71
2023/01/26 03:07:03;;;;;;;56.55;20.08;;;;;;;;;;5083040;28;20490;-71
2023/01/26 03:09:29;;;;;;;54.08;18.88;;;;;;;;;;5083292;28;20437;-71
2023/01/26 03:11:55;;;;;;;49.38;18.55;;;;;;;;;;5080649;28;20044;-71
2023/01/26 03:14:21;;;;;;;56.15;19.73;;;;;;;;;;5083906;28;20036;-71
2023/01/26 03:16:47;;;;;;;48.70;18.45;;;;;;;;;;5084564;28;20051;-71
2023/01/26 03:27:31;;;;;;;48.15;18.77;;;;;;;;;;5081939;28;20044;-71
2023/01/26 03:29:58;;;;;;;49.95;18.58;;;;;;;;;;5080925;28;20047;-71
2023/01/26 03:32:24;;;;;;;48.90;18.05;;;;;;;;;;5080459;28;20040;-71
2023/01/26 03:34:51;;;;;;;44.25;17.20;;;;;;;;;;5085371;28;20044;-71
2023/01/26 03:37:21;;;;;;;48.47;17.70;;;;;;;;;;5087451;28;20075;-71
2023/01/26 03:56:22;;;;;;;41.83;16.23;;;;;;;;;;5091298;28;20052;-71
2023/01/26 03:58:50;;;;;;;44.40;15.98;;;;;;;;;;5093413;28;20052;-72
2023/01/26 04:01:19;;;;;;;43.50;15.48;;;;;;;;;;5091587;28;20498;-71
2023/01/26 04:09:18;;;;;;;41.22;14.93;;;;;;;;;;5072995;28;20049;-71
2023/01/26 04:11:45;;;;;;;37.50;14.43;;;;;;;;;;5082061;28;20076;-71
2023/01/26 04:22:26;;;;;;;35.05;13.50;;;;;;;;;;5075763;28;20045;-71
2023/01/26 04:24:53;;;;;;;49.60;15.45;;;;;;;;;;5079345;28;20048;-72
2023/01/26 04:27:19;;;;;;;39.88;14.52;;;;;;;;;;5078322;28;20036;-72
2023/01/26 04:29:46;;;;;;;39.90;14.05;;;;;;;;;;5090576;28;20395;-72
2023/01/26 04:32:12;;;;;;;39.28;14.57;;;;;;;;;;5087399;28;20070;-72
2023/01/26 04:34:38;;;;;;;37.97;14.57;;;;;;;;;;5079284;28;20044;-71
2023/01/26 04:37:04;;;;;;;39.88;14.68;;;;;;;;;;5081740;28;20106;-72
2023/01/26 04:39:30;;;;;;;36.85;13.07;;;;;;;;;;5072620;28;20044;-72
2023/01/26 04:41:56;;;;;;;38.75;13.25;;;;;;;;;;5076659;28;20047;-72
2023/01/26 04:44:22;;;;;;;39.15;13.10;;;;;;;;;;5091673;28;20517;-72
2023/01/26 04:46:48;;;;;;;32.40;12.93;;;;;;;;;;5078351;28;20471;-72
2023/01/26 04:49:14;;;;;;;33.60;13.27;;;;;;;;;;5087692;28;20044;-72
2023/01/26 04:51:40;;;;;;;31.95;12.93;;;;;;;;;;5085057;28;20047;-72
2023/01/26 04:54:06;;;;;;;37.13;13.35;;;;;;;;;;5079482;28;20055;-71
2023/01/26 04:56:34;;;;;;;32.45;12.38;;;;;;;;;;5089465;28;20035;-72
2023/01/26 04:59:02;;;;;;;32.40;12.98;;;;;;;;;;5081055;28;20770;-72
2023/01/26 05:01:28;;;;;;;31.85;12.35;;;;;;;;;;5074765;28;20047;-72
2023/01/26 05:03:54;;;;;;;36.38;12.43;;;;;;;;;;5083404;28;20052;-72
2023/01/26 05:06:20;;;;;;;34.05;12.50;;;;;;;;;;5080442;28;20047;-72
2023/01/26 05:08:46;;;;;;;29.92;11.73;;;;;;;;;;5079601;28;20040;-72
2023/01/26 05:11:13;;;;;;;32.33;11.82;;;;;;;;;;5079009;28;20048;-71
2023/01/26 05:13:40;;;;;;;28.77;11.52;;;;;;;;;;5076770;28;20134;-71
2023/01/26 05:16:06;;;;;;;31.77;11.73;;;;;;;;;;5083753;28;20047;-72
2023/01/26 05:18:33;;;;;;;33.83;12.35;;;;;;;;;;5082339;28;20040;-72
2023/01/26 05:20:59;;;;;;;31.27;12.73;;;;;;;;;;5080344;28;20040;-72
2023/01/26 05:23:25;;;;;;;34.22;11.80;;;;;;;;;;5083960;28;20043;-71
2023/01/26 05:25:51;;;;;;;35.90;11.38;;;;;;;;;;5079005;28;21428;-72
2023/01/26 05:28:17;;;;;;;36.63;13.00;;;;;;;;;;5082209;28;20125;-72
2023/01/26 05:30:43;;;;;;;34.55;11.88;;;;;;;;;;5064823;28;20052;-72
2023/01/26 05:33:10;;;;;;;28.33;10.63;;;;;;;;;;5082086;28;20048;-72
2023/01/26 05:35:36;;;;;;;34.78;12.00;;;;;;;;;;5085785;28;20102;-71
2023/01/26 05:38:02;;;;;;;36.25;12.05;;;;;;;;;;5086729;28;20407;-71
2023/01/26 05:40:28;;;;;;;31.15;11.82;;;;;;;;;;5082982;28;20044;-72
2023/01/26 05:42:55;;;;;;;36.90;12.20;;;;;;;;;;5084333;28;20491;-71
2023/01/26 05:45:21;;;;;;;35.28;12.07;;;;;;;;;;5079986;28;21416;-72
2023/01/26 05:47:47;;;;;;;32.00;12.48;;;;;;;;;;5084739;28;20497;-72
2023/01/26 05:50:14;;;;;;;37.65;12.82;;;;;;;;;;5096417;28;20097;-72
2023/01/26 05:52:41;;;;;;;29.65;12.18;;;;;;;;;;5084600;28;20070;-72
2023/01/26 05:55:07;;;;;;;38.00;12.55;;;;;;;;;;5084054;28;20398;-71
2023/01/26 05:57:34;;;;;;;33.47;11.88;;;;;;;;;;5088834;28;20052;-71
2023/01/26 06:00:00;;;;;;;37.15;12.95;;;;;;;;;;5095310;28;20047;-71
2023/01/26 06:02:26;;;;;;;36.65;11.52;;;;;;;;;;5079162;28;20049;-72
2023/01/26 06:04:52;;;;;;;33.42;12.50;;;;;;;;;;5080178;28;20044;-71
2023/01/26 06:07:18;;;;;;;31.33;12.05;;;;;;;;;;5088055;28;20072;-71
2023/01/26 06:09:44;;;;;;;30.20;11.07;;;;;;;;;;5095420;28;20040;-72
2023/01/26 06:12:18;;;;;;;33.30;11.73;;;;;;;;;;5095163;28;20040;-71
2023/01/26 06:14:45;;;;;;;31.83;11.95;;;;;;;;;;5090749;28;20044;-72
2023/01/26 06:17:11;;;;;;;30.05;11.90;;;;;;;;;;5084978;28;20051;-71
2023/01/26 06:19:37;;;;;;;35.28;13.15;;;;;;;;;;5080643;28;20039;-71
2023/01/26 06:22:04;;;;;;;28.52;11.30;;;;;;;;;;5083057;28;20058;-71
2023/01/26 06:24:30;;;;;;;31.95;11.68;;;;;;;;;;5084780;28;20444;-72
2023/01/26 06:26:56;;;;;;;32.67;11.82;;;;;;;;;;5083413;28;20044;-72
2023/01/26 06:29:22;;;;;;;35.97;12.27;;;;;;;;;;5079024;28;20037;-72
2023/01/26 06:31:48;;;;;;;32.58;11.75;;;;;;;;;;5081228;28;20044;-71
2023/01/26 06:34:17;;;;;;;40.45;12.30;;;;;;;;;;5083210;28;20048;-71
2023/01/26 06:36:43;;;;;;;31.77;12.25;;;;;;;;;;5085782;28;20058;-71
2023/01/26 06:39:11;;;;;;;33.22;11.85;;;;;;;;;;5082769;28;20044;-72
2023/01/26 06:41:37;;;;;;;37.42;11.93;;;;;;;;;;5081536;28;20103;-72
2023/01/26 06:44:03;;;;;;;37.13;12.07;;;;;;;;;;5083493;28;20055;-72
2023/01/26 06:46:29;;;;;;;38.72;11.60;;;;;;;;;;5080852;28;20044;-71
2023/01/26 06:48:55;;;;;;;37.28;11.63;;;;;;;;;;5081867;28;20051;-71
2023/01/26 06:51:21;;;;;;;43.58;12.00;;;;;;;;;;5084152;28;21858;-71
2023/01/26 06:53:51;;;;;;;40.00;11.80;;;;;;;;;;5083856;28;20041;-72
2023/01/26 06:56:17;;;;;;;40.80;12.52;;;;;;;;;;5080617;28;20403;-71
2023/01/26 06:58:43;;;;;;;60.58;13.80;;;;;;;;;;5083084;28;20078;-71
2023/01/26 07:01:10;;;;;;;75.55;14.05;;;;;;;;;;5081246;28;20033;-71
2023/01/26 07:03:36;;;;;;;44.90;12.98;;;;;;;;;;5079372;28;20052;-72
2023/01/26 07:06:02;;;;;;;50.38;13.07;;;;;;;;;;5077052;28;20056;-71
2023/01/26 07:08:29;;;;;;;90.65;15.75;;;;;;;;;;5091334;28;20047;-71
2023/01/26 07:10:55;;;;;;;52.50;13.57;;;;;;;;;;5081937;28;20040;-72
2023/01/26 07:13:21;;;;;;;92.47;14.95;;;;;;;;;;5087453;28;20111;-72
2023/01/26 07:15:47;;;;;;;99.50;15.65;;;;;;;;;;5083645;28;20036;-71
2023/01/26 07:18:13;;;;;;;92.97;13.93;;;;;;;;;;5075453;28;20052;-71
2023/01/26 07:20:39;;;;;;;105.72;15.82;;;;;;;;;;5074051;28;20045;-71
2023/01/26 07:23:05;;;;;;;67.18;15.10;;;;;;;;;;5092146;28;20443;-71
2023/01/26 07:25:31;;;;;;;58.70;13.73;;;;;;;;;;5085507;28;20429;-72
2023/01/26 07:27:57;;;;;;;68.28;14.65;;;;;;;;;;5092159;28;20897;-71
2023/01/26 07:30:24;;;;;;;108.75;16.55;;;;;;;;;;5092787;28;20043;-71
2023/01/26 07:32:50;;;;;;;80.07;16.48;;;;;;;;;;5090925;28;20056;-72
2023/01/26 07:35:16;;;;;;;101.47;17.27;;;;;;;;;;5078389;28;20079;-72
2023/01/26 07:37:42;;;;;;;71.47;16.55;;;;;;;;;;5090188;28;20271;-71
2023/01/26 07:40:09;;;;;;;74.63;16.33;;;;;;;;;;5083588;28;20039;-72
2023/01/26 07:42:35;;;;;;;148.00;19.00;;;;;;;;;;5089042;28;20048;-71
2023/01/26 07:45:01;;;;;;;161.70;18.75;;;;;;;;;;5088603;28;20059;-71
2023/01/26 07:47:27;;;;;;;63.35;16.13;;;;;;;;;;5084874;28;20486;-71
2023/01/26 07:49:53;;;;;;;121.90;17.55;;;;;;;;;;5088212;28;20044;-72
2023/01/26 07:52:19;;;;;;;111.22;17.70;;;;;;;;;;5082418;28;20056;-72
2023/01/26 07:54:45;;;;;;;123.28;17.27;;;;;;;;;;5080949;28;20093;-71
2023/01/26 07:57:11;;;;;;;155.77;20.08;;;;;;;;;;5080270;28;20045;-71
2023/01/26 07:59:38;;;;;;;120.18;19.33;;;;;;;;;;5077626;28;20054;-71
2023/01/26 08:02:04;;;;;;;115.97;19.88;;;;;;;;;;5079253;28;20132;-73
2023/01/26 08:04:30;;;;;;;130.93;20.48;;;;;;;;;;5087023;28;20406;-72
2023/01/26 08:06:56;;;;;;;115.28;21.48;;;;;;;;;;5086628;28;20052;-72
2023/01/26 08:09:23;;;;;;;74.18;17.50;;;;;;;;;;5082491;28;20047;-71
2023/01/26 08:11:49;;;;;;;73.88;17.35;;;;;;;;;;5073522;28;20048;-72
2023/01/26 08:14:15;;;;;;;95.47;19.00;;;;;;;;;;5073457;28;20414;-72
2023/01/26 08:16:41;;;;;;;79.30;17.80;;;;;;;;;;5083056;28;20048;-71
2023/01/26 08:19:07;;;;;;;79.82;15.95;;;;;;;;;;5082288;28;20115;-71
2023/01/26 08:21:33;;;;;;;76.03;15.77;;;;;;;;;;5092180;28;20043;-72
2023/01/26 08:24:02;;;;;;;73.65;16.10;;;;;;;;;;5091982;28;20048;-72
2023/01/26 08:26:28;;;;;;;90.10;17.77;;;;;;;;;;5089621;28;20105;-71
2023/01/26 08:28:54;;;;;;;79.53;16.42;;;;;;;;;;5072091;28;20094;-72
2023/01/26 08:31:20;;;;;;;71.15;16.17;;;;;;;;;;5072079;28;20548;-72
2023/01/26 08:33:49;;;;;;;82.82;15.98;;;;;;;;;;5065394;28;20054;-74
2023/01/26 08:36:15;;;;;;;83.82;15.70;;;;;;;;;;5091836;28;20112;-72
2023/01/26 08:38:42;;;;;;;65.07;14.63;;;;;;;;;;5092653;28;20076;-72
2023/01/26 08:41:08;;;;;;;78.40;15.20;;;;;;;;;;5092573;28;20093;-76
2023/01/26 08:43:35;;;;;;;71.78;14.88;;;;;;;;;;5073858;28;20136;-78
2023/01/26 08:46:01;;;;;;;63.22;13.93;;;;;;;;;;5074653;28;20081;-71
2023/01/26 08:48:29;;;;;;;71.00;14.85;;;;;;;;;;5086302;28;20067;-72
2023/01/26 08:50:56;;;;;;;63.28;14.40;;;;;;;;;;5088920;28;20179;-73
2023/01/26 08:53:23;;;;;;;70.43;14.52;;;;;;;;;;5073611;28;20047;-73
2023/01/26 08:55:49;;;;;;;71.60;13.93;;;;;;;;;;5078127;28;20043;-73
2023/01/26 08:58:15;;;;;;;86.95;13.50;;;;;;;;;;5072871;28;20102;-72
2023/01/26 09:00:41;;;;;;;61.45;12.50;;;;;;;;;;5076433;28;20048;-71
2023/01/26 09:03:07;;;;;;;72.38;13.18;;;;;;;;;;5089409;28;20064;-71
2023/01/26 09:05:37;;;;;;;79.78;14.45;;;;;;;;;;5087176;28;20051;-71
2023/01/26 09:08:04;;;;;;;65.88;14.38;;;;;;;;;;5091589;28;20032;-71
2023/01/26 09:10:30;;;;;;;62.83;13.02;;;;;;;;;;5086944;28;20044;-71
2023/01/26 09:12:57;;;;;;;65.50;12.40;;;;;;;;;;5082440;28;20032;-71
2023/01/26 09:15:23;;;;;;;72.18;12.77;;;;;;;;;;5089488;28;20417;-72
2023/01/26 09:17:49;;;;;;;68.65;12.15;;;;;;;;;;5070984;28;20089;-73
2023/01/26 09:20:16;;;;;;;69.20;11.00;;;;;;;;;;5089590;28;20052;-72
2023/01/26 09:22:42;;;;;;;64.78;11.55;;;;;;;;;;5087772;28;20080;-72
2023/01/26 09:25:09;;;;;;;66.18;11.35;;;;;;;;;;5091546;28;20089;-72
2023/01/26 09:27:35;;;;;;;55.50;12.02;;;;;;;;;;5087380;28;20072;-72
2023/01/26 09:30:01;;;;;;;61.42;10.98;;;;;;;;;;5082240;28;20076;-72
2023/01/26 09:32:27;;;;;;;49.28;10.95;;;;;;;;;;5079150;28;20048;-72
2023/01/26 09:34:53;;;;;;;55.65;11.35;;;;;;;;;;5090568;28;20052;-71
2023/01/26 09:37:19;;;;;;;62.45;11.30;;;;;;;;;;5091491;28;20147;-72
2023/01/26 09:39:45;;;;;;;59.20;11.60;;;;;;;;;;5091899;28;20115;-71
2023/01/26 09:42:20;;;;;;;53.47;11.55;;;;;;;;;;5091311;28;20052;-71
2023/01/26 09:44:51;;;;;;;66.78;11.48;;;;;;;;;;5088274;28;20045;-72
2023/01/26 09:47:25;;;;;;;58.28;10.20;;;;;;;;;;5090408;28;20052;-72
2023/01/26 09:49:59;;;;;;;65.30;10.65;;;;;;;;;;5086659;28;20052;-72
2023/01/26 09:52:27;;;;;;;55.05;10.55;;;;;;;;;;5090231;28;20170;-71
2023/01/26 09:55:14;;;;;;;60.63;10.30;;;;;;;;;;5091199;28;20044;-71
2023/01/26 09:57:40;;;;;;;85.32;34.42;;;;;;;;;;5091404;28;20059;-72
2023/01/26 10:00:08;;;;;;;55.80;14.02;;;;;;;;;;5090849;28;20052;-70
2023/01/26 10:02:49;;;;;;;55.75;13.23;;;;;;;;;;5094338;28;20048;-72
2023/01/26 10:05:27;;;;;;;63.70;12.02;;;;;;;;;;5095330;28;20068;-71
2023/01/26 10:07:54;;;;;;;58.15;11.13;;;;;;;;;;5063230;28;20048;-71
2023/01/26 10:10:26;;;;;;;62.88;12.23;;;;;;;;;;5095396;28;20150;-72
2023/01/26 10:12:52;;;;;;;57.53;11.50;;;;;;;;;;5095427;28;20052;-71
2023/01/26 10:15:29;;;;;;;50.60;10.25;;;;;;;;;;5095254;28;20123;-71
2023/01/26 10:17:56;;;;;;;59.88;12.68;;;;;;;;;;5093949;28;20040;-71
2023/01/26 10:20:22;;;;;;;53.88;9.38;;;;;;;;;;5089734;28;20085;-72
2023/01/26 10:22:50;;;;;;;55.97;10.57;;;;;;;;;;5076601;28;20048;-72
2023/01/26 10:25:20;;;;;;;58.78;8.90;;;;;;;;;;5085924;28;20109;-72
2023/01/26 10:27:46;;;;;;;57.75;9.90;;;;;;;;;;5086104;28;20044;-72
2023/01/26 10:30:13;;;;;;;46.10;9.35;;;;;;;;;;5074359;28;20055;-72
2023/01/26 10:32:41;;;;;;;50.78;8.40;;;;;;;;;;5071881;28;20052;-72
2023/01/26 10:35:14;;;;;;;48.33;8.68;;;;;;;;;;5092238;28;20129;-72
2023/01/26 10:37:40;;;;;;;45.17;8.93;;;;;;;;;;5079209;28;20052;-72
2023/01/26 10:40:07;;;;;;;46.60;10.57;;;;;;;;;;5074462;28;20040;-72
2023/01/26 10:42:34;;;;;;;41.90;7.63;;;;;;;;;;5087082;28;20044;-71
2023/01/26 10:45:02;;;;;;;42.90;7.68;;;;;;;;;;5086347;28;20055;-71
2023/01/26 10:47:28;;;;;;;45.90;7.35;;;;;;;;;;5082886;28;20051;-71
2023/01/26 10:50:12;;;;;;;49.67;6.45;;;;;;;;;;5085128;28;20086;-71
2023/01/26 10:52:55;;;;;;;39.25;6.75;;;;;;;;;;5083950;28;20060;-71
2023/01/26 10:55:21;;;;;;;44.67;6.68;;;;;;;;;;5084043;28;20043;-70
2023/01/26 10:57:47;;;;;;;45.03;7.35;;;;;;;;;;5084121;28;20076;-71
2023/01/26 11:00:24;;;;;;;42.58;6.78;;;;;;;;;;5086091;28;20048;-71
2023/01/26 11:02:52;;;;;;;37.63;5.13;;;;;;;;;;5086057;28;20146;-71
2023/01/26 11:05:19;;;;;;;36.22;5.05;;;;;;;;;;5083461;28;20032;-70
2023/01/26 11:07:46;;;;;;;37.17;5.82;;;;;;;;;;5084702;28;20040;-71
2023/01/26 11:10:17;;;;;;;40.95;5.70;;;;;;;;;;5083855;28;20094;-71
2023/01/26 11:12:43;;;;;;;34.97;4.63;;;;;;;;;;5082380;28;20101;-71
2023/01/26 11:15:29;;;;;;;31.42;4.82;;;;;;;;;;5083344;28;20052;-71
2023/01/26 11:18:02;;;;;;;36.35;4.82;;;;;;;;;;5076771;28;20131;-71
2023/01/26 11:20:29;;;;;;;41.67;5.00;;;;;;;;;;5076345;28;20445;-71
2023/01/26 11:22:58;;;;;;;40.28;4.25;;;;;;;;;;5092133;28;20048;-71
2023/01/26 11:25:26;;;;;;;34.17;4.63;;;;;;;;;;5071526;28;20048;-71
2023/01/26 11:27:55;;;;;;;36.08;4.65;;;;;;;;;;5084431;28;20445;-71
2023/01/26 11:30:21;;;;;;;30.40;3.40;;;;;;;;;;5091860;28;20093;-71
2023/01/26 11:32:57;;;;;;;37.67;4.13;;;;;;;;;;5090997;28;20375;-71
2023/01/26 11:35:26;;;;;;;32.97;4.75;;;;;;;;;;5077880;28;20482;-71
2023/01/26 11:38:12;;;;;;;40.55;3.97;;;;;;;;;;5072881;28;20046;-73
2023/01/26 11:40:55;;;;;;;31.90;4.50;;;;;;;;;;5092495;28;20048;-72
2023/01/26 11:43:21;;;;;;;31.40;4.20;;;;;;;;;;5088605;28;20040;-72
2023/01/26 11:46:01;;;;;;;32.63;4.30;;;;;;;;;;5072620;28;20051;-72
2023/01/26 11:48:45;;;;;;;32.17;4.10;;;;;;;;;;5073306;28;20047;-72
2023/01/26 11:51:30;;;;;;;26.30;3.33;;;;;;;;;;5074509;28;20052;-71
2023/01/26 11:54:09;;;;;;;27.20;5.32;;;;;;;;;;5081892;28;20355;-72
2023/01/26 11:56:48;;;;;;;28.58;4.40;;;;;;;;;;5080128;28;20406;-71
2023/01/26 11:59:21;;;;;;;28.30;3.75;;;;;;;;;;5083351;28;20047;-72
2023/01/26 12:02:01;;;;;;;30.55;4.20;;;;;;;;;;5081956;28;20050;-70
2023/01/26 12:04:27;;;;;;;27.50;3.65;;;;;;;;;;5080052;28;20530;-71
2023/01/26 12:07:19;;;;;;;33.50;4.20;;;;;;;;;;5091737;28;20401;-72
2023/01/26 12:09:47;;;;;;;30.85;5.00;;;;;;;;;;5082913;28;20040;-71
2023/01/26 12:12:17;;;;;;;25.27;3.60;;;;;;;;;;5092312;28;20064;-71
2023/01/26 12:14:46;;;;;;;26.73;3.38;;;;;;;;;;5080829;28;20443;-72
2023/01/26 12:17:38;;;;;;;26.88;3.45;;;;;;;;;;5091731;28;20401;-71
2023/01/26 12:20:11;;;;;;;22.70;2.92;;;;;;;;;;5072726;28;20055;-72
2023/01/26 12:22:39;;;;;;;19.40;2.85;;;;;;;;;;5072450;28;20040;-71
2023/01/26 12:25:24;;;;;;;22.15;2.60;;;;;;;;;;5072675;28;20036;-73
2023/01/26 12:27:54;;;;;;;156.00;110.63;;;;;;;;;;5082417;28;20063;-72
2023/01/26 12:30:24;;;;;;;191.23;170.32;;;;;;;;;;5078445;28;20144;-72
2023/01/26 12:32:51;;;;;;;307.02;253.55;;;;;;;;;;5086649;28;20051;-71
2023/01/26 12:35:25;;;;;;;32.70;19.02;;;;;;;;;;5090131;28;20492;-71
2023/01/26 12:37:58;;;;;;;55.30;47.75;;;;;;;;;;5091849;28;20048;-71
2023/01/26 12:40:36;;;;;;;22.63;6.50;;;;;;;;;;5087844;28;20039;-71
2023/01/26 12:43:14;;;;;;;26.38;6.10;;;;;;;;;;5079138;28;20200;-72
2023/01/26 12:45:41;;;;;;;40.08;29.02;;;;;;;;;;5072360;28;20049;-72
2023/01/26 12:48:16;;;;;;;246.18;219.80;;;;;;;;;;5072442;28;20115;-71
2023/01/26 12:50:55;;;;;;;57.92;42.42;;;;;;;;;;5085034;28;20052;-71
2023/01/26 12:53:31;;;;;;;24.25;12.88;;;;;;;;;;5082099;28;20036;-71
2023/01/26 12:56:03;;;;;;;30.33;14.98;;;;;;;;;;5072232;28;20492;-71
2023/01/26 12:58:38;;;;;;;25.35;8.07;;;;;;;;;;5073419;28;20045;-72
2023/01/26 13:01:07;;;;;;;20.17;4.80;;;;;;;;;;5085772;28;20047;-71
2023/01/26 13:03:40;;;;;;;97.43;88.78;;;;;;;;;;5073584;28;20056;-72
2023/01/26 13:06:09;;;;;;;66.88;59.30;;;;;;;;;;5075357;28;20047;-72
2023/01/26 13:08:35;;;;;;;32.28;27.58;;;;;;;;;;5089993;28;20044;-72
2023/01/26 13:11:05;;;;;;;20.70;6.15;;;;;;;;;;5072780;28;20090;-71
2023/01/26 13:13:32;;;;;;;28.65;11.88;;;;;;;;;;5081115;28;20051;-72
2023/01/26 13:16:17;;;;;;;28.52;10.25;;;;;;;;;;5092418;28;20048;-72
2023/01/26 13:18:49;;;;;;;27.90;11.98;;;;;;;;;;5091481;28;20402;-72
2023/01/26 13:21:35;;;;;;;19.05;3.78;;;;;;;;;;5079147;28;20490;-71
2023/01/26 13:24:01;;;;;;;38.38;26.73;;;;;;;;;;5053595;28;20524;-71
2023/01/26 13:26:33;;;;;;;27.73;10.60;;;;;;;;;;5074507;28;20048;-72
2023/01/26 13:29:18;;;;;;;21.92;8.52;;;;;;;;;;5079874;28;20040;-71
2023/01/26 13:31:44;;;;;;;16.83;4.38;;;;;;;;;;5074467;28;20043;-71
2023/01/26 13:34:10;;;;;;;22.42;10.18;;;;;;;;;;5091762;28;20543;-71
2023/01/26 13:36:38;;;;;;;17.98;4.05;;;;;;;;;;5077028;28;20045;-71
2023/01/26 13:39:30;;;;;;;17.92;4.57;;;;;;;;;;5081027;28;20387;-72
2023/01/26 13:41:56;;;;;;;21.83;3.75;;;;;;;;;;5071038;28;20049;-71
2023/01/26 13:44:39;;;;;;;23.33;5.38;;;;;;;;;;5077037;28;20072;-72
2023/01/26 13:47:09;;;;;;;148.82;119.07;;;;;;;;;;5075937;28;20102;-72
2023/01/26 13:49:37;;;;;;;20.75;7.88;;;;;;;;;;5093634;28;20448;-71
2023/01/26 13:52:03;;;;;;;24.88;9.15;;;;;;;;;;5095040;28;20135;-72
2023/01/26 13:54:29;;;;;;;16.85;5.65;;;;;;;;;;5093258;28;20052;-73
2023/01/26 13:57:06;;;;;;;17.00;3.17;;;;;;;;;;5093148;28;20036;-71
2023/01/26 13:59:33;;;;;;;20.58;9.23;;;;;;;;;;5095704;28;20129;-71
2023/01/26 14:01:59;;;;;;;16.35;2.85;;;;;;;;;;5094710;28;20421;-72
2023/01/26 14:04:29;;;;;;;15.18;3.55;;;;;;;;;;5095544;28;20071;-71
2023/01/26 14:07:02;;;;;;;18.15;3.92;;;;;;;;;;5094670;28;20147;-71
2023/01/26 14:09:30;;;;;;;14.60;4.47;;;;;;;;;;5095242;28;20082;-71
2023/01/26 14:11:59;;;;;;;11.98;2.28;;;;;;;;;;5080003;28;20070;-71
2023/01/26 14:14:28;;;;;;;17.05;2.30;;;;;;;;;;5084460;28;20056;-72
2023/01/26 14:16:56;;;;;;;57.60;51.20;;;;;;;;;;5086418;28;20086;-71
2023/01/26 14:19:23;;;;;;;35.03;25.17;;;;;;;;;;5078782;28;20566;-74
2023/01/26 14:21:51;;;;;;;40.15;32.35;;;;;;;;;;5091810;28;20048;-73
2023/01/26 14:24:18;;;;;;;17.75;6.45;;;;;;;;;;5093982;28;20051;-71
2023/01/26 14:26:44;;;;;;;36.38;31.85;;;;;;;;;;5095089;28;20044;-72
2023/01/26 14:29:11;;;;;;;24.88;10.10;;;;;;;;;;5094592;28;20168;-75
2023/01/26 14:31:38;;;;;;;21.40;10.77;;;;;;;;;;5075920;28;20498;-75
2023/01/26 14:34:08;;;;;;;17.30;5.70;;;;;;;;;;5086421;28;20048;-73
2023/01/26 14:36:38;;;;;;;15.55;7.47;;;;;;;;;;5094545;28;20052;-73
2023/01/26 14:39:10;;;;;;;13.80;4.63;;;;;;;;;;5076310;28;20049;-72
2023/01/26 14:41:36;;;;;;;17.75;5.53;;;;;;;;;;5093708;28;20063;-67
2023/01/26 14:44:04;;;;;;;15.85;3.42;;;;;;;;;;5088336;28;20090;-68
2023/01/26 14:46:51;;;;;;;17.88;2.00;;;;;;;;;;5076031;28;20435;-66
2023/01/26 14:49:20;;;;;;;25.50;10.10;;;;;;;;;;5093890;28;20212;-67
2023/01/26 14:51:48;;;;;;;21.02;2.42;;;;;;;;;;5083061;28;20428;-68
2023/01/26 14:54:17;;;;;;;51.08;34.55;;;;;;;;;;5074401;28;20052;-70
2023/01/26 14:56:45;;;;;;;33.22;20.67;;;;;;;;;;5074250;28;20040;-70
2023/01/26 14:59:20;;;;;;;26.10;12.63;;;;;;;;;;5082816;28;20045;-71
2023/01/26 15:01:46;;;;;;;49.13;37.88;;;;;;;;;;5090505;28;20047;-71
2023/01/26 15:04:35;;;;;;;32.85;17.42;;;;;;;;;;5081665;28;20052;-71
2023/01/26 15:07:20;;;;;;;27.70;15.25;;;;;;;;;;5078722;28;20032;-75
2023/01/26 15:09:51;;;;;;;30.73;18.63;;;;;;;;;;5092151;28;20039;-70
2023/01/26 15:12:17;;;;;;;22.83;7.50;;;;;;;;;;5091110;28;20046;-70
2023/01/26 15:14:48;;;;;;;29.00;18.98;;;;;;;;;;5094411;28;20058;-74